Temp: 11.8°C   Baro: 1029.0mb
  Wind: 0.0mph   Dir: NE (51°)
  Rain: 0.0mm (0.0mm/hr)
  Solar: 0W/m2  Hum: 81%
 
Bath Spa Weather Historical Data
Daily Summary for September 12, 2019 Units:  Both    English   Metric
Next Day »
Daily Weekly Monthly Yearly Custom
  High: Low: Average:
Temperature: 71.6 °F /  22.0 °C 55.9 °F /  13.3 °C 62.8 °F /  17.1 °C
Dew Point: 61.3 °F /  16.3 °C 53.6 °F /  12.0 °C 57.7 °F /  14.3 °C
Humidity: 94% 68% 84%
Wind Speed: 19mph /  30.6km/h - 4.4mph /  7.1km/h
Wind Gust: 20mph /  32.2km/h - -
Wind direction- - West
Pressure: 30.4 in /  1029.0 hPa 30.2 in /  1023.9 hPa -
Precipitation: 0.01 in /  0.3 mm    
Historical Graphs
 
 
Tabular Data for September 12, 2019
Time Temperature Dew Point Pressure Wind direction Wind Speed Wind Gust Humidity Rainfall Rate (Hourly) solar
00:00 57.9 °F /  14.4 °C 55.2 °F /  12.9 °C 30.2in /  1023.9hPa WNW 0.9mph /  1.4km/h 2mph /  3.2km/h 91% 0in /  0.0mm 0.00 W/m2
00:05 57.9 °F /  14.4 °C 55.2 °F /  12.9 °C 30.2in /  1023.9hPa Calm   1mph /  1.6km/h 91% 0in /  0.0mm 0.00 W/m2
00:10 57.9 °F /  14.4 °C 55.2 °F /  12.9 °C 30.2in /  1023.9hPa WNW 0.9mph /  1.4km/h 1mph /  1.6km/h 91% 0in /  0.0mm 0.00 W/m2
00:15 58.1 °F /  14.5 °C 55.4 °F /  13.0 °C 30.2in /  1023.9hPa WNW 2.9mph /  4.7km/h 4mph /  6.4km/h 91% 0in /  0.0mm 0.00 W/m2
00:20 58.1 °F /  14.5 °C 55.4 °F /  13.0 °C 30.2in /  1023.9hPa Calm   1mph /  1.6km/h 91% 0in /  0.0mm 0.00 W/m2
00:25 58.1 °F /  14.5 °C 55.4 °F /  13.0 °C 30.2in /  1023.9hPa WNW 0.9mph /  1.4km/h 2mph /  3.2km/h 91% 0in /  0.0mm 0.00 W/m2
00:30 58.1 °F /  14.5 °C 55.4 °F /  13.0 °C 30.2in /  1023.9hPa WNW 0.9mph /  1.4km/h 2mph /  3.2km/h 91% 0in /  0.0mm 0.00 W/m2
00:35 58.1 °F /  14.5 °C 55.4 °F /  13.0 °C 30.2in /  1023.9hPa WNW 3mph /  4.8km/h 3mph /  4.8km/h 91% 0in /  0.0mm 0.00 W/m2
00:40 58.1 °F /  14.5 °C 55.4 °F /  13.0 °C 30.2in /  1023.9hPa Calm   3mph /  4.8km/h 91% 0in /  0.0mm 0.00 W/m2
00:45 58.3 °F /  14.6 °C 55.6 °F /  13.1 °C 30.2in /  1023.9hPa Calm   3mph /  4.8km/h 91% 0in /  0.0mm 0.00 W/m2
00:50 58.3 °F /  14.6 °C 55.6 °F /  13.1 °C 30.2in /  1023.9hPa WNW 2mph /  3.2km/h 3mph /  4.8km/h 91% 0in /  0.0mm 0.00 W/m2
00:55 58.3 °F /  14.6 °C 55.6 °F /  13.1 °C 30.2in /  1023.9hPa Calm   2mph /  3.2km/h 91% 0in /  0.0mm 0.00 W/m2
01:00 58.3 °F /  14.6 °C 55.6 °F /  13.1 °C 30.2in /  1023.9hPa WNW 2.9mph /  4.7km/h 3mph /  4.8km/h 91% 0in /  0.0mm 0.00 W/m2
01:05 58.1 °F /  14.5 °C 55.4 °F /  13.0 °C 30.2in /  1023.9hPa Calm   3mph /  4.8km/h 91% 0in /  0.0mm 0.00 W/m2
01:10 58.1 °F /  14.5 °C 55.4 °F /  13.0 °C 30.2in /  1023.9hPa WNW 0.9mph /  1.4km/h 3mph /  4.8km/h 91% 0in /  0.0mm 0.00 W/m2
01:15 58.3 °F /  14.6 °C 55.6 °F /  13.1 °C 30.2in /  1023.9hPa Calm   3mph /  4.8km/h 91% 0in /  0.0mm 0.00 W/m2
01:20 58.1 °F /  14.5 °C 55.4 °F /  13.0 °C 30.2in /  1023.9hPa WNW 2mph /  3.2km/h 3mph /  4.8km/h 91% 0in /  0.0mm 0.00 W/m2
01:25 58.1 °F /  14.5 °C 55.4 °F /  13.0 °C 30.3in /  1024.3hPa WNW 2.9mph /  4.7km/h 3mph /  4.8km/h 91% 0in /  0.0mm 0.00 W/m2
01:30 58.1 °F /  14.5 °C 55.4 °F /  13.0 °C 30.3in /  1024.3hPa WNW 4mph /  6.4km/h 5mph /  8.0km/h 91% 0in /  0.0mm 0.00 W/m2
01:35 57.9 °F /  14.4 °C 55.2 °F /  12.9 °C 30.3in /  1024.3hPa WNW 2mph /  3.2km/h 4mph /  6.4km/h 91% 0in /  0.0mm 0.00 W/m2
01:40 57.7 °F /  14.3 °C 55.2 °F /  12.9 °C 30.3in /  1024.3hPa WNW 0.9mph /  1.4km/h 5mph /  8.0km/h 91% 0in /  0.0mm 0.00 W/m2
01:45 57.7 °F /  14.3 °C 55.2 °F /  12.9 °C 30.3in /  1024.3hPa Calm   1mph /  1.6km/h 91% 0in /  0.0mm 0.00 W/m2
01:50 57.6 °F /  14.2 °C 55 °F /  12.8 °C 30.3in /  1024.3hPa Calm   1mph /  1.6km/h 91% 0in /  0.0mm 0.00 W/m2
01:55 57.2 °F /  14.0 °C 54.7 °F /  12.6 °C 30.3in /  1024.3hPa Calm   2mph /  3.2km/h 91% 0in /  0.0mm 0.00 W/m2
02:00 57.2 °F /  14.0 °C 54.7 °F /  12.6 °C 30.3in /  1024.3hPa WNW 0.9mph /  1.4km/h 2mph /  3.2km/h 91% 0in /  0.0mm 0.00 W/m2
02:05 57 °F /  13.9 °C 54.5 °F /  12.5 °C 30.3in /  1024.3hPa WNW 0.9mph /  1.4km/h 2mph /  3.2km/h 91% 0in /  0.0mm 0.00 W/m2
02:10 56.8 °F /  13.8 °C 54.3 °F /  12.4 °C 30.3in /  1024.3hPa WNW 0.9mph /  1.4km/h 2mph /  3.2km/h 91% 0in /  0.0mm 0.00 W/m2
02:15 56.7 °F /  13.7 °C 54.1 °F /  12.3 °C 30.3in /  1024.3hPa WNW 0.9mph /  1.4km/h 2mph /  3.2km/h 91% 0in /  0.0mm 0.00 W/m2
02:20 56.5 °F /  13.6 °C 54.1 °F /  12.3 °C 30.3in /  1024.3hPa Calm   3mph /  4.8km/h 92% 0in /  0.0mm 0.00 W/m2
02:25 56.3 °F /  13.5 °C 54 °F /  12.2 °C 30.3in /  1024.3hPa WNW 2mph /  3.2km/h 3mph /  4.8km/h 92% 0in /  0.0mm 0.00 W/m2
02:30 56.3 °F /  13.5 °C 54 °F /  12.2 °C 30.3in /  1024.6hPa WNW 0.9mph /  1.4km/h 1mph /  1.6km/h 92% 0in /  0.0mm 0.00 W/m2
02:35 56.1 °F /  13.4 °C 53.8 °F /  12.1 °C 30.3in /  1024.6hPa Calm   1mph /  1.6km/h 92% 0in /  0.0mm 0.00 W/m2
02:40 56.1 °F /  13.4 °C 53.8 °F /  12.1 °C 30.3in /  1024.6hPa WNW 0.9mph /  1.4km/h 2mph /  3.2km/h 92% 0in /  0.0mm 0.00 W/m2
02:45 56.1 °F /  13.4 °C 53.8 °F /  12.1 °C 30.3in /  1024.6hPa Calm   2mph /  3.2km/h 92% 0in /  0.0mm 0.00 W/m2
02:50 56.1 °F /  13.4 °C 53.8 °F /  12.1 °C 30.3in /  1024.6hPa WNW 0.9mph /  1.4km/h 3mph /  4.8km/h 92% 0in /  0.0mm 0.00 W/m2
02:55 56.3 °F /  13.5 °C 54 °F /  12.2 °C 30.3in /  1024.6hPa Calm   2mph /  3.2km/h 92% 0in /  0.0mm 0.00 W/m2
03:00 56.1 °F /  13.4 °C 53.8 °F /  12.1 °C 30.3in /  1024.6hPa Calm   2mph /  3.2km/h 92% 0in /  0.0mm 0.00 W/m2
03:05 56.3 °F /  13.5 °C 54 °F /  12.2 °C 30.3in /  1024.6hPa Calm   1mph /  1.6km/h 92% 0in /  0.0mm 0.00 W/m2
03:10 56.3 °F /  13.5 °C 54 °F /  12.2 °C 30.3in /  1024.6hPa Calm     92% 0in /  0.0mm 0.00 W/m2
03:15 56.3 °F /  13.5 °C 54 °F /  12.2 °C 30.3in /  1024.6hPa Calm   1mph /  1.6km/h 92% 0in /  0.0mm 0.00 W/m2
03:20 56.1 °F /  13.4 °C 53.8 °F /  12.1 °C 30.3in /  1024.6hPa Calm   2mph /  3.2km/h 92% 0in /  0.0mm 0.00 W/m2
03:25 56.1 °F /  13.4 °C 53.8 °F /  12.1 °C 30.3in /  1024.6hPa Calm   1mph /  1.6km/h 92% 0in /  0.0mm 0.00 W/m2
03:30 56.1 °F /  13.4 °C 53.8 °F /  12.1 °C 30.3in /  1024.6hPa Calm     92% 0in /  0.0mm 0.00 W/m2
03:35 55.9 °F /  13.3 °C 53.6 °F /  12.0 °C 30.3in /  1024.9hPa Calm   1mph /  1.6km/h 92% 0in /  0.0mm 0.00 W/m2
03:40 55.9 °F /  13.3 °C 53.6 °F /  12.0 °C 30.3in /  1024.9hPa Calm   2mph /  3.2km/h 92% 0in /  0.0mm 0.00 W/m2
03:45 55.9 °F /  13.3 °C 53.6 °F /  12.0 °C 30.3in /  1024.9hPa Calm   1mph /  1.6km/h 92% 0in /  0.0mm 0.00 W/m2
03:50 55.9 °F /  13.3 °C 54 °F /  12.2 °C 30.3in /  1024.9hPa WNW 0.9mph /  1.4km/h 3mph /  4.8km/h 93% 0in /  0.0mm 0.00 W/m2
03:55 55.9 °F /  13.3 °C 54 °F /  12.2 °C 30.3in /  1024.9hPa WNW 0.9mph /  1.4km/h 2mph /  3.2km/h 93% 0in /  0.0mm 0.00 W/m2
04:00 55.9 °F /  13.3 °C 54 °F /  12.2 °C 30.3in /  1024.9hPa Calm   1mph /  1.6km/h 93% 0in /  0.0mm 0.00 W/m2
04:05 55.9 °F /  13.3 °C 54 °F /  12.2 °C 30.3in /  1024.9hPa Calm   1mph /  1.6km/h 93% 0in /  0.0mm 0.00 W/m2
04:10 56.1 °F /  13.4 °C 54.1 °F /  12.3 °C 30.3in /  1024.6hPa Calm     93% 0in /  0.0mm 0.00 W/m2
04:15 56.1 °F /  13.4 °C 54.1 °F /  12.3 °C 30.3in /  1024.9hPa Calm     93% 0in /  0.0mm 0.00 W/m2
04:20 56.1 °F /  13.4 °C 53.8 °F /  12.1 °C 30.3in /  1024.9hPa Calm     92% 0in /  0.0mm 0.00 W/m2
04:25 56.1 °F /  13.4 °C 53.8 °F /  12.1 °C 30.3in /  1024.9hPa Calm   1mph /  1.6km/h 92% 0in /  0.0mm 0.00 W/m2
04:30 56.3 °F /  13.5 °C 54 °F /  12.2 °C 30.3in /  1024.9hPa Calm     92% 0in /  0.0mm 0.00 W/m2
04:35 56.3 °F /  13.5 °C 54 °F /  12.2 °C 30.3in /  1024.9hPa Calm     92% 0in /  0.0mm 0.00 W/m2
04:40 56.5 °F /  13.6 °C 54.1 °F /  12.3 °C 30.3in /  1024.9hPa WNW 0.9mph /  1.4km/h 2mph /  3.2km/h 92% 0in /  0.0mm 0.00 W/m2
04:45 56.7 °F /  13.7 °C 54.3 °F /  12.4 °C 30.3in /  1024.9hPa Calm   1mph /  1.6km/h 92% 0in /  0.0mm 0.00 W/m2
04:50 56.7 °F /  13.7 °C 54.3 °F /  12.4 °C 30.3in /  1024.9hPa Calm   1mph /  1.6km/h 92% 0in /  0.0mm 0.00 W/m2
04:55 56.7 °F /  13.7 °C 54.3 °F /  12.4 °C 30.3in /  1024.9hPa Calm   1mph /  1.6km/h 92% 0in /  0.0mm 0.00 W/m2
05:00 56.8 °F /  13.8 °C 54.5 °F /  12.5 °C 30.3in /  1024.9hPa WNW 2.9mph /  4.7km/h 3mph /  4.8km/h 92% 0in /  0.0mm 0.00 W/m2
05:05 56.8 °F /  13.8 °C 54.5 °F /  12.5 °C 30.3in /  1024.9hPa Calm     92% 0in /  0.0mm 0.00 W/m2
05:10 57 °F /  13.9 °C 54.7 °F /  12.6 °C 30.3in /  1024.9hPa Calm   3mph /  4.8km/h 92% 0in /  0.0mm 0.00 W/m2
05:15 57 °F /  13.9 °C 54.7 °F /  12.6 °C 30.3in /  1024.9hPa Calm   2mph /  3.2km/h 92% 0in /  0.0mm 0.00 W/m2
05:20 57.2 °F /  14.0 °C 54.9 °F /  12.7 °C 30.3in /  1024.9hPa Calm   1mph /  1.6km/h 92% 0in /  0.0mm 0.00 W/m2
05:25 57.4 °F /  14.1 °C 55 °F /  12.8 °C 30.3in /  1024.9hPa WNW 2mph /  3.2km/h 3mph /  4.8km/h 92% 0in /  0.0mm 0.00 W/m2
05:30 57.6 °F /  14.2 °C 55.2 °F /  12.9 °C 30.3in /  1024.9hPa WNW 2mph /  3.2km/h 5mph /  8.0km/h 92% 0in /  0.0mm 0.00 W/m2
05:35 57.7 °F /  14.3 °C 55.4 °F /  13.0 °C 30.3in /  1024.9hPa WNW 2mph /  3.2km/h 3mph /  4.8km/h 92% 0in /  0.0mm 0.00 W/m2
05:40 57.9 °F /  14.4 °C 55.6 °F /  13.1 °C 30.3in /  1024.9hPa Calm   3mph /  4.8km/h 92% 0in /  0.0mm 0.00 W/m2
05:45 57.9 °F /  14.4 °C 55.6 °F /  13.1 °C 30.3in /  1024.9hPa Calm   2mph /  3.2km/h 92% 0in /  0.0mm 0.00 W/m2
05:50 57.9 °F /  14.4 °C 55.6 °F /  13.1 °C 30.3in /  1024.9hPa Calm   2mph /  3.2km/h 92% 0in /  0.0mm 0.00 W/m2
05:55 57.9 °F /  14.4 °C 55.2 °F /  12.9 °C 30.3in /  1024.9hPa West 4mph /  6.4km/h 4mph /  6.4km/h 91% 0in /  0.0mm 0.00 W/m2
06:00 57.9 °F /  14.4 °C 55.2 °F /  12.9 °C 30.3in /  1025.3hPa West 5mph /  8.0km/h 5mph /  8.0km/h 91% 0in /  0.0mm 0.00 W/m2
06:05 57.9 °F /  14.4 °C 55.2 °F /  12.9 °C 30.3in /  1025.3hPa West 4mph /  6.4km/h 5mph /  8.0km/h 91% 0in /  0.0mm 0.00 W/m2
06:10 58.1 °F /  14.5 °C 55.4 °F /  13.0 °C 30.3in /  1025.3hPa Calm   5mph /  8.0km/h 91% 0in /  0.0mm 0.00 W/m2
06:15 58.1 °F /  14.5 °C 55.4 °F /  13.0 °C 30.3in /  1025.3hPa WSW 4mph /  6.4km/h 7mph /  11.3km/h 91% 0in /  0.0mm 0.00 W/m2
06:20 58.1 °F /  14.5 °C 55.2 °F /  12.9 °C 30.3in /  1025.3hPa WSW 2mph /  3.2km/h 4mph /  6.4km/h 90% 0in /  0.0mm 0.00 W/m2
06:25 58.1 °F /  14.5 °C 55.2 °F /  12.9 °C 30.3in /  1025.3hPa WSW 4.9mph /  7.9km/h 5mph /  8.0km/h 90% 0in /  0.0mm 0.00 W/m2
06:30 58.3 °F /  14.6 °C 55.4 °F /  13.0 °C 30.3in /  1025.6hPa Calm   3mph /  4.8km/h 90% 0in /  0.0mm 0.00 W/m2
06:35 58.3 °F /  14.6 °C 55.4 °F /  13.0 °C 30.3in /  1025.6hPa WSW 0.9mph /  1.4km/h 3mph /  4.8km/h 90% 0in /  0.0mm 0.00 W/m2
06:40 58.3 °F /  14.6 °C 55.4 °F /  13.0 °C 30.3in /  1025.6hPa WSW 0.9mph /  1.4km/h 5mph /  8.0km/h 90% 0in /  0.0mm 0.00 W/m2
06:45 58.5 °F /  14.7 °C 55.6 °F /  13.1 °C 30.3in /  1025.6hPa Calm   5mph /  8.0km/h 90% 0in /  0.0mm 0.00 W/m2
06:50 58.3 °F /  14.6 °C 55.6 °F /  13.1 °C 30.3in /  1025.6hPa West 0.9mph /  1.4km/h 5mph /  8.0km/h 91% 0in /  0.0mm 5.00 W/m2
06:55 58.3 °F /  14.6 °C 55.6 °F /  13.1 °C 30.3in /  1025.6hPa Calm   2mph /  3.2km/h 91% 0in /  0.0mm 7.00 W/m2
07:00 58.3 °F /  14.6 °C 55.6 °F /  13.1 °C 30.3in /  1025.6hPa WNW 2mph /  3.2km/h 4mph /  6.4km/h 91% 0in /  0.0mm 14.00 W/m2
07:05 58.3 °F /  14.6 °C 55.6 °F /  13.1 °C 30.3in /  1025.6hPa WNW 0.9mph /  1.4km/h 2mph /  3.2km/h 91% 0in /  0.0mm 12.00 W/m2
07:10 58.3 °F /  14.6 °C 55.6 °F /  13.1 °C 30.3in /  1025.6hPa WNW 0.9mph /  1.4km/h 2mph /  3.2km/h 91% 0in /  0.0mm 12.00 W/m2
07:15 58.5 °F /  14.7 °C 55.8 °F /  13.2 °C 30.3in /  1025.6hPa WNW 0.9mph /  1.4km/h 2mph /  3.2km/h 91% 0in /  0.0mm 16.00 W/m2
07:20 58.5 °F /  14.7 °C 55.8 °F /  13.2 °C 30.3in /  1025.6hPa Calm   1mph /  1.6km/h 91% 0in /  0.0mm 19.00 W/m2
07:25 58.5 °F /  14.7 °C 55.8 °F /  13.2 °C 30.3in /  1025.6hPa Calm     91% 0in /  0.0mm 33.00 W/m2
07:30 58.6 °F /  14.8 °C 56.3 °F /  13.5 °C 30.3in /  1025.6hPa Calm     92% 0in /  0.0mm 30.00 W/m2
07:35 58.8 °F /  14.9 °C 56.5 °F /  13.6 °C 30.3in /  1026.0hPa Calm   1mph /  1.6km/h 92% 0in /  0.0mm 44.00 W/m2
07:40 58.8 °F /  14.9 °C 56.5 °F /  13.6 °C 30.3in /  1026.0hPa Calm   1mph /  1.6km/h 92% 0in /  0.0mm 32.00 W/m2
07:45 59 °F /  15.0 °C 56.7 °F /  13.7 °C 30.3in /  1026.0hPa Calm   1mph /  1.6km/h 92% 0in /  0.0mm 33.00 W/m2
07:50 59.2 °F /  15.1 °C 56.8 °F /  13.8 °C 30.3in /  1026.0hPa Calm     92% 0in /  0.0mm 37.00 W/m2
07:55 59.5 °F /  15.3 °C 57.2 °F /  14.0 °C 30.3in /  1026.0hPa SW 2mph /  3.2km/h 6mph /  9.7km/h 92% 0in /  0.0mm 46.00 W/m2
08:00 59.7 °F /  15.4 °C 57.4 °F /  14.1 °C 30.3in /  1026.0hPa West 4mph /  6.4km/h 7mph /  11.3km/h 92% 0in /  0.0mm 60.00 W/m2
08:05 59.9 °F /  15.5 °C 57.6 °F /  14.2 °C 30.3in /  1026.0hPa SW 2.9mph /  4.7km/h 7mph /  11.3km/h 92% 0in /  0.0mm 53.00 W/m2
08:10 59.9 °F /  15.5 °C 57.6 °F /  14.2 °C 30.3in /  1026.0hPa WSW 0.9mph /  1.4km/h 6mph /  9.7km/h 92% 0in /  0.0mm 95.00 W/m2
08:15 60.3 °F /  15.7 °C 58.3 °F /  14.6 °C 30.3in /  1026.0hPa SW 2.9mph /  4.7km/h 6mph /  9.7km/h 93% 0in /  0.0mm 76.00 W/m2
08:20 60.4 °F /  15.8 °C 58.5 °F /  14.7 °C 30.3in /  1026.0hPa WSW 2.9mph /  4.7km/h 6mph /  9.7km/h 93% 0in /  0.0mm 104.00 W/m2
08:25 60.4 °F /  15.8 °C 58.5 °F /  14.7 °C 30.3in /  1026.0hPa WSW 4mph /  6.4km/h 9mph /  14.5km/h 93% 0in /  0.0mm 120.00 W/m2
08:30 60.8 °F /  16.0 °C 58.8 °F /  14.9 °C 30.3in /  1026.0hPa SW 4mph /  6.4km/h 5mph /  8.0km/h 93% 0in /  0.0mm 127.00 W/m2
08:35 61 °F /  16.1 °C 59 °F /  15.0 °C 30.3in /  1026.0hPa SW 4mph /  6.4km/h 9mph /  14.5km/h 93% 0in /  0.0mm 111.00 W/m2
08:40 61.2 °F /  16.2 °C 59.2 °F /  15.1 °C 30.3in /  1026.3hPa SW 4.9mph /  7.9km/h 9mph /  14.5km/h 93% 0in /  0.0mm 116.00 W/m2
08:45 61.3 °F /  16.3 °C 59.4 °F /  15.2 °C 30.3in /  1026.3hPa SW 4mph /  6.4km/h 9mph /  14.5km/h 93% 0in /  0.0mm 120.00 W/m2
08:50 61.3 °F /  16.3 °C 59.4 °F /  15.2 °C 30.3in /  1026.3hPa WSW 4mph /  6.4km/h 12mph /  19.3km/h 93% 0in /  0.0mm 127.00 W/m2
08:55 61.5 °F /  16.4 °C 59.5 °F /  15.3 °C 30.3in /  1026.3hPa WSW 11mph /  17.7km/h 11mph /  17.7km/h 93% 0in /  0.0mm 132.00 W/m2
09:00 61.7 °F /  16.5 °C 59.7 °F /  15.4 °C 30.3in /  1026.3hPa SW 6.9mph /  11.1km/h 12mph /  19.3km/h 93% 0in /  0.0mm 153.00 W/m2
09:05 62.1 °F /  16.7 °C 59.7 °F /  15.4 °C 30.3in /  1026.6hPa SW 6.9mph /  11.1km/h 11mph /  17.7km/h 92% 0in /  0.0mm 213.00 W/m2
09:10 62.4 °F /  16.9 °C 60.1 °F /  15.6 °C 30.3in /  1026.6hPa WSW 8.1mph /  13.0km/h 8mph /  12.9km/h 92% 0in /  0.0mm 301.00 W/m2
09:15 62.6 °F /  17.0 °C 60.3 °F /  15.7 °C 30.3in /  1026.6hPa WSW 6.9mph /  11.1km/h 10mph /  16.1km/h 92% 0in /  0.0mm 220.00 W/m2
09:20 63 °F /  17.2 °C 60.3 °F /  15.7 °C 30.3in /  1026.6hPa WSW 2mph /  3.2km/h 11mph /  17.7km/h 91% 0in /  0.0mm 220.00 W/m2
09:25 63.1 °F /  17.3 °C 60.1 °F /  15.6 °C 30.3in /  1026.6hPa WSW 4mph /  6.4km/h 9mph /  14.5km/h 90% 0in /  0.0mm 158.00 W/m2
09:30 63.1 °F /  17.3 °C 60.1 °F /  15.6 °C 30.3in /  1026.6hPa SW 4.9mph /  7.9km/h 9mph /  14.5km/h 90% 0in /  0.0mm 200.00 W/m2
09:35 63.3 °F /  17.4 °C 60.3 °F /  15.7 °C 30.3in /  1026.6hPa WSW 2.9mph /  4.7km/h 10mph /  16.1km/h 90% 0in /  0.0mm 258.00 W/m2
09:40 63.5 °F /  17.5 °C 60.3 °F /  15.7 °C 30.3in /  1026.6hPa SW 6mph /  9.7km/h 7mph /  11.3km/h 89% 0in /  0.0mm 232.00 W/m2
09:45 64 °F /  17.8 °C 60.8 °F /  16.0 °C 30.3in /  1026.6hPa West 6.9mph /  11.1km/h 10mph /  16.1km/h 89% 0in /  0.0mm 352.00 W/m2
09:50 64.2 °F /  17.9 °C 60.6 °F /  15.9 °C 30.3in /  1027.0hPa SW 14.1mph /  22.7km/h 16mph /  25.7km/h 88% 0in /  0.0mm 244.00 W/m2
09:55 64 °F /  17.8 °C 60.1 °F /  15.6 °C 30.3in /  1027.0hPa WSW 8.9mph /  14.3km/h 12mph /  19.3km/h 87% 0in /  0.0mm 193.00 W/m2
10:00 64.4 °F /  18.0 °C 60.4 °F /  15.8 °C 30.3in /  1027.0hPa West 10.1mph /  16.3km/h 12mph /  19.3km/h 87% 0in /  0.0mm 239.00 W/m2
10:05 64.2 °F /  17.9 °C 59.9 °F /  15.5 °C 30.3in /  1027.0hPa SW 8.1mph /  13.0km/h 15mph /  24.1km/h 86% 0in /  0.0mm 278.00 W/m2
10:10 64.4 °F /  18.0 °C 60.1 °F /  15.6 °C 30.3in /  1027.0hPa SW 8.9mph /  14.3km/h 11mph /  17.7km/h 86% 0in /  0.0mm 216.00 W/m2
10:15 64.6 °F /  18.1 °C 60.3 °F /  15.7 °C 30.3in /  1027.0hPa SSW 6mph /  9.7km/h 12mph /  19.3km/h 86% 0in /  0.0mm 255.00 W/m2
10:20 64.4 °F /  18.0 °C 60.1 °F /  15.6 °C 30.3in /  1027.0hPa SW 10.1mph /  16.3km/h 13mph /  20.9km/h 86% 0in /  0.0mm 353.00 W/m2
10:25 64 °F /  17.8 °C 59.7 °F /  15.4 °C 30.3in /  1027.3hPa WNW 6.9mph /  11.1km/h 12mph /  19.3km/h 86% 0in /  0.0mm 408.00 W/m2
10:30 64.4 °F /  18.0 °C 60.1 °F /  15.6 °C 30.3in /  1027.3hPa WNW 8.9mph /  14.3km/h 13mph /  20.9km/h 86% 0in /  0.0mm 547.00 W/m2
10:35 64.9 °F /  18.3 °C 60.6 °F /  15.9 °C 30.3in /  1027.3hPa WSW 6mph /  9.7km/h 10mph /  16.1km/h 86% 0in /  0.0mm 306.00 W/m2
10:40 64.8 °F /  18.2 °C 60.4 °F /  15.8 °C 30.3in /  1027.3hPa SW 4mph /  6.4km/h 15mph /  24.1km/h 86% 0in /  0.0mm 243.00 W/m2
10:45 64.8 °F /  18.2 °C 60.4 °F /  15.8 °C 30.3in /  1027.3hPa WSW 10.1mph /  16.3km/h 15mph /  24.1km/h 86% 0in /  0.0mm 638.00 W/m2
10:50 65.1 °F /  18.4 °C 60.1 °F /  15.6 °C 30.3in /  1027.3hPa SW 8.9mph /  14.3km/h 15mph /  24.1km/h 84% 0in /  0.0mm 383.00 W/m2
10:55 65.8 °F /  18.8 °C 60.3 °F /  15.7 °C 30.3in /  1027.3hPa West 8.9mph /  14.3km/h 12mph /  19.3km/h 82% 0in /  0.0mm 429.00 W/m2
11:00 66 °F /  18.9 °C 60.4 °F /  15.8 °C 30.3in /  1027.3hPa SW 2.9mph /  4.7km/h 10mph /  16.1km/h 82% 0in /  0.0mm 279.00 W/m2
11:05 66.2 °F /  19.0 °C 60.3 °F /  15.7 °C 30.3in /  1027.3hPa SW 4.9mph /  7.9km/h 9mph /  14.5km/h 81% 0in /  0.0mm 237.00 W/m2
11:10 66 °F /  18.9 °C 59.7 °F /  15.4 °C 30.3in /  1027.3hPa West 10.1mph /  16.3km/h 12mph /  19.3km/h 80% 0in /  0.0mm 292.00 W/m2
11:15 66.2 °F /  19.0 °C 59.9 °F /  15.5 °C 30.3in /  1027.3hPa SW 8.9mph /  14.3km/h 10mph /  16.1km/h 80% 0in /  0.0mm 295.00 W/m2
11:20 66.6 °F /  19.2 °C 60.3 °F /  15.7 °C 30.3in /  1027.3hPa WSW 10.1mph /  16.3km/h 10mph /  16.1km/h 80% 0in /  0.0mm 401.00 W/m2
11:25 66.7 °F /  19.3 °C 60.1 °F /  15.6 °C 30.3in /  1027.3hPa WSW 8.9mph /  14.3km/h 16mph /  25.7km/h 79% 0in /  0.0mm 327.00 W/m2
11:30 66.7 °F /  19.3 °C 59.7 °F /  15.4 °C 30.3in /  1027.3hPa WSW 14.1mph /  22.7km/h 14mph /  22.5km/h 78% 0in /  0.0mm 221.00 W/m2
11:35 66.7 °F /  19.3 °C 59.7 °F /  15.4 °C 30.3in /  1027.3hPa WSW 8.9mph /  14.3km/h 12mph /  19.3km/h 78% 0in /  0.0mm 160.00 W/m2
11:40 66.7 °F /  19.3 °C 59.7 °F /  15.4 °C 30.3in /  1027.3hPa West 4.9mph /  7.9km/h 8mph /  12.9km/h 78% 0in /  0.0mm 172.00 W/m2
11:45 66.7 °F /  19.3 °C 59.7 °F /  15.4 °C 30.3in /  1027.3hPa West 6mph /  9.7km/h 11mph /  17.7km/h 78% 0in /  0.0mm 185.00 W/m2
11:50 66.9 °F /  19.4 °C 59.9 °F /  15.5 °C 30.3in /  1027.3hPa WSW 6.9mph /  11.1km/h 12mph /  19.3km/h 78% 0in /  0.0mm 244.00 W/m2
11:55 66.9 °F /  19.4 °C 59.9 °F /  15.5 °C 30.3in /  1027.3hPa West 12.1mph /  19.5km/h 15mph /  24.1km/h 78% 0in /  0.0mm 144.00 W/m2
12:00 66.9 °F /  19.4 °C 59.9 °F /  15.5 °C 30.3in /  1027.3hPa West 4mph /  6.4km/h 9mph /  14.5km/h 78% 0in /  0.0mm 114.00 W/m2
12:05 66.7 °F /  19.3 °C 59.7 °F /  15.4 °C 30.3in /  1027.3hPa West 4mph /  6.4km/h 14mph /  22.5km/h 78% 0in /  0.0mm 163.00 W/m2
12:10 66.7 °F /  19.3 °C 59.7 °F /  15.4 °C 30.3in /  1027.3hPa WSW 6.9mph /  11.1km/h 13mph /  20.9km/h 78% 0in /  0.0mm 153.00 W/m2
12:15 66.7 °F /  19.3 °C 59.7 °F /  15.4 °C 30.3in /  1027.3hPa WSW 6.9mph /  11.1km/h 14mph /  22.5km/h 78% 0in /  0.0mm 209.00 W/m2
12:20 66.7 °F /  19.3 °C 59.7 °F /  15.4 °C 30.3in /  1027.3hPa WNW 10.1mph /  16.3km/h 13mph /  20.9km/h 78% 0in /  0.0mm 232.00 W/m2
12:25 67.1 °F /  19.5 °C 60.1 °F /  15.6 °C 30.3in /  1027.3hPa WSW 8.9mph /  14.3km/h 13mph /  20.9km/h 78% 0in /  0.0mm 387.00 W/m2
12:30 68 °F /  20.0 °C 60.4 °F /  15.8 °C 30.3in /  1027.0hPa WSW 8.9mph /  14.3km/h 10mph /  16.1km/h 77% 0in /  0.0mm 387.00 W/m2
12:35 68.4 °F /  20.2 °C 60.4 °F /  15.8 °C 30.3in /  1027.3hPa WSW 6mph /  9.7km/h 9mph /  14.5km/h 76% 0in /  0.0mm 591.00 W/m2
12:40 68.9 °F /  20.5 °C 60.6 °F /  15.9 °C 30.3in /  1027.0hPa WSW 2.9mph /  4.7km/h 12mph /  19.3km/h 75% 0in /  0.0mm 362.00 W/m2
12:45 69.1 °F /  20.6 °C 60.1 °F /  15.6 °C 30.3in /  1027.0hPa WNW 6.9mph /  11.1km/h 9mph /  14.5km/h 73% 0in /  0.0mm 253.00 W/m2
12:50 69.4 °F /  20.8 °C 60.4 °F /  15.8 °C 30.3in /  1027.0hPa NW 8.1mph /  13.0km/h 13mph /  20.9km/h 73% 0in /  0.0mm 830.00 W/m2
12:55 69.4 °F /  20.8 °C 59.5 °F /  15.3 °C 30.3in /  1027.0hPa SW 15mph /  24.1km/h 15mph /  24.1km/h 71% 0in /  0.0mm 142.00 W/m2
13:00 69.3 °F /  20.7 °C 59.5 °F /  15.3 °C 30.3in /  1027.0hPa West 8.1mph /  13.0km/h 15mph /  24.1km/h 71% 0in /  0.0mm 837.00 W/m2
13:05 69.6 °F /  20.9 °C 60.3 °F /  15.7 °C 30.3in /  1027.0hPa WSW 4.9mph /  7.9km/h 13mph /  20.9km/h 72% 0in /  0.0mm 795.00 W/m2
13:10 70.9 °F /  21.6 °C 60.3 °F /  15.7 °C 30.3in /  1027.0hPa West 11mph /  17.7km/h 11mph /  17.7km/h 69% 0in /  0.0mm 810.00 W/m2
13:15 70.7 °F /  21.5 °C 60.4 °F /  15.8 °C 30.3in /  1027.0hPa West 12.1mph /  19.5km/h 12mph /  19.3km/h 70% 0in /  0.0mm 714.00 W/m2
13:20 70.2 °F /  21.2 °C 59.5 °F /  15.3 °C 30.3in /  1027.0hPa West 8.1mph /  13.0km/h 9mph /  14.5km/h 69% 0in /  0.0mm 649.00 W/m2
13:25 69.4 °F /  20.8 °C 59.2 °F /  15.1 °C 30.3in /  1027.0hPa WNW 13mph /  20.9km/h 14mph /  22.5km/h 70% 0in /  0.0mm 292.00 W/m2
13:30 69.3 °F /  20.7 °C 59.5 °F /  15.3 °C 30.3in /  1027.0hPa West 6mph /  9.7km/h 20mph /  32.2km/h 71% 0in /  0.0mm 243.00 W/m2
13:35 69.6 °F /  20.9 °C 60.3 °F /  15.7 °C 30.3in /  1027.0hPa West 10.1mph /  16.3km/h 13mph /  20.9km/h 72% 0in /  0.0mm 239.00 W/m2
13:40 69.6 °F /  20.9 °C 59.7 °F /  15.4 °C 30.3in /  1027.0hPa SW 4.9mph /  7.9km/h 20mph /  32.2km/h 71% 0in /  0.0mm 278.00 W/m2
13:45 69.6 °F /  20.9 °C 59.7 °F /  15.4 °C 30.3in /  1027.0hPa SW 8.9mph /  14.3km/h 14mph /  22.5km/h 71% 0in /  0.0mm 313.00 W/m2
13:50 69.6 °F /  20.9 °C 60.3 °F /  15.7 °C 30.3in /  1027.0hPa SW 13mph /  20.9km/h 16mph /  25.7km/h 72% 0in /  0.0mm 459.00 W/m2
13:55 69.6 °F /  20.9 °C 60.3 °F /  15.7 °C 30.3in /  1027.0hPa WSW 11mph /  17.7km/h 15mph /  24.1km/h 72% 0in /  0.0mm 352.00 W/m2
14:00 70.5 °F /  21.4 °C 60.6 °F /  15.9 °C 30.3in /  1026.6hPa West 10.1mph /  16.3km/h 13mph /  20.9km/h 71% 0in /  0.0mm 647.00 W/m2
14:05 70.3 °F /  21.3 °C 60.4 °F /  15.8 °C 30.3in /  1026.6hPa West 4mph /  6.4km/h 16mph /  25.7km/h 71% 0in /  0.0mm 703.00 W/m2
14:10 70.7 °F /  21.5 °C 60.4 °F /  15.8 °C 30.3in /  1026.6hPa West 4.9mph /  7.9km/h 12mph /  19.3km/h 70% 0in /  0.0mm 671.00 W/m2
14:15 70.7 °F /  21.5 °C 60.1 °F /  15.6 °C 30.3in /  1026.6hPa WNW 4.9mph /  7.9km/h 15mph /  24.1km/h 69% 0in /  0.0mm 691.00 W/m2
14:20 70.2 °F /  21.2 °C 59.9 °F /  15.5 °C 30.3in /  1026.6hPa West 6mph /  9.7km/h 15mph /  24.1km/h 70% 0in /  0.0mm 749.00 W/m2
14:25 70.7 °F /  21.5 °C 60.8 °F /  16.0 °C 30.3in /  1026.6hPa WNW 12.1mph /  19.5km/h 16mph /  25.7km/h 71% 0in /  0.0mm 805.00 W/m2
14:30 71.6 °F /  22.0 °C 61.3 °F /  16.3 °C 30.3in /  1026.6hPa SW 8.1mph /  13.0km/h 12mph /  19.3km/h 70% 0in /  0.0mm 508.00 W/m2
14:35 71.2 °F /  21.8 °C 60.6 °F /  15.9 °C 30.3in /  1026.6hPa West 16.1mph /  25.9km/h 17mph /  27.4km/h 69% 0in /  0.0mm 559.00 W/m2
14:40 71.2 °F /  21.8 °C 61 °F /  16.1 °C 30.3in /  1026.6hPa WNW 11mph /  17.7km/h 12mph /  19.3km/h 70% 0in /  0.0mm 694.00 W/m2
14:45 70.7 °F /  21.5 °C 60.8 °F /  16.0 °C 30.3in /  1026.6hPa West 11mph /  17.7km/h 13mph /  20.9km/h 71% 0in /  0.0mm 605.00 W/m2
14:50 70.7 °F /  21.5 °C 60.8 °F /  16.0 °C 30.3in /  1026.6hPa WNW 13mph /  20.9km/h 14mph /  22.5km/h 71% 0in /  0.0mm 638.00 W/m2
14:55 70.5 °F /  21.4 °C 61 °F /  16.1 °C 30.3in /  1026.6hPa West 6.9mph /  11.1km/h 14mph /  22.5km/h 72% 0in /  0.0mm 606.00 W/m2
15:00 71.2 °F /  21.8 °C 61.3 °F /  16.3 °C 30.3in /  1026.6hPa NW 4mph /  6.4km/h 9mph /  14.5km/h 71% 0in /  0.0mm 594.00 W/m2
15:05 70.3 °F /  21.3 °C 60.8 °F /  16.0 °C 30.3in /  1026.6hPa West 12.1mph /  19.5km/h 18mph /  29.0km/h 72% 0in /  0.0mm 606.00 W/m2
15:10 70.2 °F /  21.2 °C 60.6 °F /  15.9 °C 30.3in /  1026.6hPa West 11mph /  17.7km/h 14mph /  22.5km/h 72% 0in /  0.0mm 573.00 W/m2
15:15 70.3 °F /  21.3 °C 60.8 °F /  16.0 °C 30.3in /  1026.6hPa NNW 4mph /  6.4km/h 10mph /  16.1km/h 72% 0in /  0.0mm 571.00 W/m2
15:20 70.3 °F /  21.3 °C 60.1 °F /  15.6 °C 30.3in /  1026.6hPa West 16mph /  25.7km/h 16mph /  25.7km/h 70% 0in /  0.0mm 573.00 W/m2
15:25 70.5 °F /  21.4 °C 60.3 °F /  15.7 °C 30.3in /  1026.6hPa West 8.9mph /  14.3km/h 13mph /  20.9km/h 70% 0in /  0.0mm 580.00 W/m2
15:30 70.5 °F /  21.4 °C 59.9 °F /  15.5 °C 30.3in /  1026.6hPa West 13mph /  20.9km/h 15mph /  24.1km/h 69% 0in /  0.0mm 571.00 W/m2
15:35 70.2 °F /  21.2 °C 59.9 °F /  15.5 °C 30.3in /  1026.6hPa West 11mph /  17.7km/h 13mph /  20.9km/h 70% 0in /  0.0mm 570.00 W/m2
15:40 69.8 °F /  21.0 °C 58.8 °F /  14.9 °C 30.3in /  1026.6hPa WNW 2.9mph /  4.7km/h 16mph /  25.7km/h 68% 0in /  0.0mm 492.00 W/m2
15:45 69.8 °F /  21.0 °C 58.8 °F /  14.9 °C 30.3in /  1026.6hPa West 6mph /  9.7km/h 15mph /  24.1km/h 68% 0in /  0.0mm 271.00 W/m2
15:50 70.3 °F /  21.3 °C 59.7 °F /  15.4 °C 30.3in /  1026.6hPa NNW 0.9mph /  1.4km/h 17mph /  27.4km/h 69% 0in /  0.0mm 526.00 W/m2
15:55 70.9 °F /  21.6 °C 59.7 °F /  15.4 °C 30.3in /  1026.6hPa WNW 4mph /  6.4km/h 9mph /  14.5km/h 68% 0in /  0.0mm 517.00 W/m2
16:00 70 °F /  21.1 °C 59 °F /  15.0 °C 30.3in /  1026.6hPa NNW 8.1mph /  13.0km/h 13mph /  20.9km/h 68% 0in /  0.0mm 566.00 W/m2
16:05 70 °F /  21.1 °C 59.4 °F /  15.2 °C 30.3in /  1026.6hPa West 4.9mph /  7.9km/h 14mph /  22.5km/h 69% 0in /  0.0mm 475.00 W/m2
16:10 69.6 °F /  20.9 °C 59 °F /  15.0 °C 30.3in /  1026.6hPa West 12.1mph /  19.5km/h 15mph /  24.1km/h 69% 0in /  0.0mm 466.00 W/m2
16:15 69.8 °F /  21.0 °C 59.2 °F /  15.1 °C 30.3in /  1026.6hPa WNW 6.9mph /  11.1km/h 14mph /  22.5km/h 69% 0in /  0.0mm 450.00 W/m2
16:20 69.3 °F /  20.7 °C 58.6 °F /  14.8 °C 30.3in /  1027.0hPa NNW 13mph /  20.9km/h 17mph /  27.4km/h 69% 0in /  0.0mm 439.00 W/m2
16:25 69.3 °F /  20.7 °C 58.6 °F /  14.8 °C 30.3in /  1026.6hPa NW 12.1mph /  19.5km/h 15mph /  24.1km/h 69% 0in /  0.0mm 425.00 W/m2
16:30 69.1 °F /  20.6 °C 58.5 °F /  14.7 °C 30.3in /  1026.6hPa West 8.1mph /  13.0km/h 14mph /  22.5km/h 69% 0in /  0.0mm 417.00 W/m2
16:35 68.9 °F /  20.5 °C 58.6 °F /  14.8 °C 30.3in /  1026.6hPa WNW 6.9mph /  11.1km/h 15mph /  24.1km/h 70% 0in /  0.0mm 397.00 W/m2
16:40 68.7 °F /  20.4 °C 58.5 °F /  14.7 °C 30.3in /  1027.0hPa NW 8.9mph /  14.3km/h 15mph /  24.1km/h 70% 0in /  0.0mm 397.00 W/m2
16:45 68.5 °F /  20.3 °C 58.8 °F /  14.9 °C 30.3in /  1026.6hPa WNW 6.9mph /  11.1km/h 16mph /  25.7km/h 71% 0in /  0.0mm 383.00 W/m2
16:50 68.4 °F /  20.2 °C 58.3 °F /  14.6 °C 30.3in /  1026.6hPa West 8.9mph /  14.3km/h 18mph /  29.0km/h 70% 0in /  0.0mm 367.00 W/m2
16:55 68.5 °F /  20.3 °C 58.8 °F /  14.9 °C 30.3in /  1026.6hPa West 14.1mph /  22.7km/h 14mph /  22.5km/h 71% 0in /  0.0mm 359.00 W/m2
17:00 68.9 °F /  20.5 °C 59.2 °F /  15.1 °C 30.3in /  1026.6hPa WSW 2.9mph /  4.7km/h 12mph /  19.3km/h 71% 0in /  0.0mm 348.00 W/m2
17:05 68.9 °F /  20.5 °C 58.6 °F /  14.8 °C 30.3in /  1026.6hPa NW 13mph /  20.9km/h 13mph /  20.9km/h 70% 0in /  0.0mm 336.00 W/m2
17:10 68.5 °F /  20.3 °C 58.8 °F /  14.9 °C 30.3in /  1026.6hPa West 8.9mph /  14.3km/h 14mph /  22.5km/h 71% 0in /  0.0mm 322.00 W/m2
17:15 68.7 °F /  20.4 °C 59 °F /  15.0 °C 30.3in /  1026.6hPa NW 4.9mph /  7.9km/h 14mph /  22.5km/h 71% 0in /  0.0mm 313.00 W/m2
17:20 68.4 °F /  20.2 °C 58.6 °F /  14.8 °C 30.3in /  1026.6hPa West 4.9mph /  7.9km/h 13mph /  20.9km/h 71% 0in /  0.0mm 299.00 W/m2
17:25 68.5 °F /  20.3 °C 59.2 °F /  15.1 °C 30.3in /  1026.6hPa NW 4.9mph /  7.9km/h 11mph /  17.7km/h 72% 0in /  0.0mm 285.00 W/m2
17:30 68.5 °F /  20.3 °C 59.2 °F /  15.1 °C 30.3in /  1026.6hPa WSW 11mph /  17.7km/h 13mph /  20.9km/h 72% 0in /  0.0mm 90.00 W/m2
17:35 67.5 °F /  19.7 °C 58.1 °F /  14.5 °C 30.3in /  1027.0hPa WNW 12.1mph /  19.5km/h 16mph /  25.7km/h 72% 0in /  0.0mm 202.00 W/m2
17:40 67.5 °F /  19.7 °C 58.5 °F /  14.7 °C 30.3in /  1027.0hPa West 10.1mph /  16.3km/h 16mph /  25.7km/h 73% 0in /  0.0mm 72.00 W/m2
17:45 66.9 °F /  19.4 °C 58.3 °F /  14.6 °C 30.3in /  1027.0hPa West 8.9mph /  14.3km/h 15mph /  24.1km/h 74% 0in /  0.0mm 53.00 W/m2
17:50 66.9 °F /  19.4 °C 58.3 °F /  14.6 °C 30.3in /  1027.0hPa NW 12.1mph /  19.5km/h 13mph /  20.9km/h 74% 0in /  0.0mm 54.00 W/m2
17:55 66.7 °F /  19.3 °C 58.1 °F /  14.5 °C 30.3in /  1027.0hPa NW 19mph /  30.6km/h 19mph /  30.6km/h 74% 0in /  0.0mm 62.00 W/m2
18:00 66.6 °F /  19.2 °C 58.1 °F /  14.5 °C 30.3in /  1027.0hPa West 13mph /  20.9km/h 13mph /  20.9km/h 74% 0in /  0.0mm 46.00 W/m2
18:05 66.6 °F /  19.2 °C 58.1 °F /  14.5 °C 30.3in /  1027.0hPa West 2.9mph /  4.7km/h 12mph /  19.3km/h 74% 0in /  0.0mm 46.00 W/m2
18:10 66.6 °F /  19.2 °C 58.1 °F /  14.5 °C 30.3in /  1027.0hPa West 4.9mph /  7.9km/h 10mph /  16.1km/h 74% 0in /  0.0mm 39.00 W/m2
18:15 66.2 °F /  19.0 °C 58.1 °F /  14.5 °C 30.3in /  1027.0hPa WNW 4mph /  6.4km/h 8mph /  12.9km/h 75% 0in /  0.0mm 35.00 W/m2
18:20 66 °F /  18.9 °C 57.9 °F /  14.4 °C 30.3in /  1027.3hPa WNW 8.9mph /  14.3km/h 10mph /  16.1km/h 75% 0in /  0.0mm 33.00 W/m2
18:25 65.8 °F /  18.8 °C 57.7 °F /  14.3 °C 30.3in /  1027.0hPa WNW 4.9mph /  7.9km/h 14mph /  22.5km/h 75% 0in /  0.0mm 33.00 W/m2
18:30 65.7 °F /  18.7 °C 57.6 °F /  14.2 °C 30.3in /  1027.3hPa West 4.9mph /  7.9km/h 11mph /  17.7km/h 75% 0in /  0.0mm 30.00 W/m2
18:35 65.7 °F /  18.7 °C 57.6 °F /  14.2 °C 30.3in /  1027.3hPa WNW 2.9mph /  4.7km/h 7mph /  11.3km/h 75% 0in /  0.0mm 21.00 W/m2
18:40 65.7 °F /  18.7 °C 57.6 °F /  14.2 °C 30.3in /  1027.3hPa West 14.1mph /  22.7km/h 14mph /  22.5km/h 75% 0in /  0.0mm 18.00 W/m2
18:45 65.3 °F /  18.5 °C 56.8 °F /  13.8 °C 30.3in /  1027.3hPa NW 6.9mph /  11.1km/h 8mph /  12.9km/h 74% 0in /  0.0mm 16.00 W/m2
18:50 65.3 °F /  18.5 °C 57.2 °F /  14.0 °C 30.3in /  1027.3hPa WNW 2mph /  3.2km/h 10mph /  16.1km/h 75% 0in /  0.0mm 14.00 W/m2
18:55 65.1 °F /  18.4 °C 57 °F /  13.9 °C 30.3in /  1027.3hPa West 6mph /  9.7km/h 9mph /  14.5km/h 75% 0in /  0.0mm 14.00 W/m2
19:00 65.1 °F /  18.4 °C 57 °F /  13.9 °C 30.3in /  1027.3hPa NW 8.1mph /  13.0km/h 8mph /  12.9km/h 75% 0in /  0.0mm 14.00 W/m2
19:05 64.9 °F /  18.3 °C 57.2 °F /  14.0 °C 30.3in /  1027.3hPa WNW 4mph /  6.4km/h 11mph /  17.7km/h 76% 0in /  0.0mm 12.00 W/m2
19:10 64.6 °F /  18.1 °C 56.8 °F /  13.8 °C 30.3in /  1027.3hPa NW 2mph /  3.2km/h 8mph /  12.9km/h 76% 0in /  0.0mm 5.00 W/m2
19:15 64.4 °F /  18.0 °C 57 °F /  13.9 °C 30.3in /  1027.3hPa NW 4.9mph /  7.9km/h 10mph /  16.1km/h 77% 0in /  0.0mm 0.00 W/m2
19:20 64.2 °F /  17.9 °C 57.2 °F /  14.0 °C 30.3in /  1027.3hPa West 4.9mph /  7.9km/h 9mph /  14.5km/h 78% 0in /  0.0mm 0.00 W/m2
19:25 64 °F /  17.8 °C 57 °F /  13.9 °C 30.3in /  1027.3hPa West 8.9mph /  14.3km/h 9mph /  14.5km/h 78% 0in /  0.0mm 0.00 W/m2
19:30 63.9 °F /  17.7 °C 57.2 °F /  14.0 °C 30.3in /  1027.3hPa NW 4.9mph /  7.9km/h 5mph /  8.0km/h 79% 0in /  0.0mm 0.00 W/m2
19:35 63.9 °F /  17.7 °C 57.6 °F /  14.2 °C 30.3in /  1027.3hPa WNW 4mph /  6.4km/h 5mph /  8.0km/h 80% 0in /  0.0mm 0.00 W/m2
19:40 63.7 °F /  17.6 °C 57.4 °F /  14.1 °C 30.4in /  1027.7hPa WNW 4.9mph /  7.9km/h 7mph /  11.3km/h 80% 0in /  0.0mm 0.00 W/m2
19:45 63.7 °F /  17.6 °C 57.7 °F /  14.3 °C 30.4in /  1027.7hPa WNW 2.9mph /  4.7km/h 5mph /  8.0km/h 81% 0in /  0.0mm 0.00 W/m2
19:50 63.7 °F /  17.6 °C 57.4 °F /  14.1 °C 30.4in /  1027.7hPa WNW 2.9mph /  4.7km/h 8mph /  12.9km/h 80% 0in /  0.0mm 0.00 W/m2
19:55 63.7 °F /  17.6 °C 57.7 °F /  14.3 °C 30.4in /  1027.7hPa NW 4.9mph /  7.9km/h 8mph /  12.9km/h 81% 0in /  0.0mm 0.00 W/m2
20:00 63.7 °F /  17.6 °C 57.7 °F /  14.3 °C 30.4in /  1027.7hPa WNW 4mph /  6.4km/h 5mph /  8.0km/h 81% 0in /  0.0mm 0.00 W/m2
20:05 63.7 °F /  17.6 °C 57.7 °F /  14.3 °C 30.4in /  1027.7hPa West 0.9mph /  1.4km/h 8mph /  12.9km/h 81% 0in /  0.0mm 0.00 W/m2
20:10 63.5 °F /  17.5 °C 57.6 °F /  14.2 °C 30.4in /  1028.0hPa WNW 4mph /  6.4km/h 7mph /  11.3km/h 81% 0in /  0.0mm 0.00 W/m2
20:15 63.5 °F /  17.5 °C 57.9 °F /  14.4 °C 30.4in /  1028.0hPa WNW 4.9mph /  7.9km/h 7mph /  11.3km/h 82% 0in /  0.0mm 0.00 W/m2
20:20 63.3 °F /  17.4 °C 57.7 °F /  14.3 °C 30.4in /  1028.0hPa West 2mph /  3.2km/h 5mph /  8.0km/h 82% 0in /  0.0mm 0.00 W/m2
20:25 63.3 °F /  17.4 °C 58.1 °F /  14.5 °C 30.4in /  1028.0hPa WNW 6mph /  9.7km/h 8mph /  12.9km/h 83% 0in /  0.0mm 0.00 W/m2
20:30 63 °F /  17.2 °C 58.1 °F /  14.5 °C 30.4in /  1028.0hPa West 2.9mph /  4.7km/h 8mph /  12.9km/h 84% 0in /  0.0mm 0.00 W/m2
20:35 62.6 °F /  17.0 °C 58.1 °F /  14.5 °C 30.4in /  1028.3hPa WNW 2mph /  3.2km/h 6mph /  9.7km/h 85% 0in /  0.0mm 0.00 W/m2
20:40 62.6 °F /  17.0 °C 58.1 °F /  14.5 °C 30.4in /  1028.3hPa WNW 0.9mph /  1.4km/h 3mph /  4.8km/h 85% 0in /  0.0mm 0.00 W/m2
20:45 62.6 °F /  17.0 °C 58.3 °F /  14.6 °C 30.4in /  1028.3hPa WNW 0.9mph /  1.4km/h 4mph /  6.4km/h 86% 0in /  0.0mm 0.00 W/m2
20:50 62.4 °F /  16.9 °C 58.5 °F /  14.7 °C 30.4in /  1028.0hPa WNW 2.9mph /  4.7km/h 3mph /  4.8km/h 87% 0in /  0.0mm 0.00 W/m2
20:55 62.4 °F /  16.9 °C 58.5 °F /  14.7 °C 30.4in /  1028.3hPa West 0.9mph /  1.4km/h 3mph /  4.8km/h 87% 0in /  0.0mm 0.00 W/m2
21:00 62.4 °F /  16.9 °C 58.5 °F /  14.7 °C 30.4in /  1028.3hPa WSW 4.9mph /  7.9km/h 7mph /  11.3km/h 87% 0in /  0.0mm 0.00 W/m2
21:05 62.2 °F /  16.8 °C 58.6 °F /  14.8 °C 30.4in /  1028.3hPa WSW 4mph /  6.4km/h 5mph /  8.0km/h 88% 0in /  0.0mm 0.00 W/m2
21:10 62.4 °F /  16.9 °C 58.8 °F /  14.9 °C 30.4in /  1028.3hPa WSW 2mph /  3.2km/h 6mph /  9.7km/h 88% 0in /  0.0mm 0.00 W/m2
21:15 62.4 °F /  16.9 °C 58.8 °F /  14.9 °C 30.4in /  1028.3hPa WSW 2mph /  3.2km/h 4mph /  6.4km/h 88% 0in /  0.0mm 0.00 W/m2
21:20 62.4 °F /  16.9 °C 58.8 °F /  14.9 °C 30.4in /  1028.3hPa West 0.9mph /  1.4km/h 5mph /  8.0km/h 88% 0in /  0.0mm 0.00 W/m2
21:25 62.4 °F /  16.9 °C 58.8 °F /  14.9 °C 30.4in /  1028.3hPa West 0.9mph /  1.4km/h 3mph /  4.8km/h 88% 0in /  0.0mm 0.00 W/m2
21:30 62.2 °F /  16.8 °C 58.6 °F /  14.8 °C 30.4in /  1028.3hPa West 4mph /  6.4km/h 6mph /  9.7km/h 88% 0in /  0.0mm 0.00 W/m2
21:35 62.1 °F /  16.7 °C 58.8 °F /  14.9 °C 30.4in /  1028.3hPa WSW 0.9mph /  1.4km/h 6mph /  9.7km/h 89% 0in /  0.0mm 0.00 W/m2
21:40 62.1 °F /  16.7 °C 58.8 °F /  14.9 °C 30.4in /  1028.3hPa WSW 0.9mph /  1.4km/h 5mph /  8.0km/h 89% 0in /  0.0mm 0.00 W/m2
21:45 62.1 °F /  16.7 °C 58.8 °F /  14.9 °C 30.4in /  1028.3hPa WSW 0.9mph /  1.4km/h 5mph /  8.0km/h 89% 0in /  0.0mm 0.00 W/m2
21:50 62.1 °F /  16.7 °C 59.2 °F /  15.1 °C 30.4in /  1028.7hPa WSW 2.9mph /  4.7km/h 5mph /  8.0km/h 90% 0in /  0.0mm 0.00 W/m2
21:55 61.9 °F /  16.6 °C 59 °F /  15.0 °C 30.4in /  1028.7hPa WSW 4.9mph /  7.9km/h 6mph /  9.7km/h 90% 0in /  0.0mm 0.00 W/m2
22:00 61.7 °F /  16.5 °C 58.8 °F /  14.9 °C 30.4in /  1028.7hPa WSW 4.9mph /  7.9km/h 5mph /  8.0km/h 90% 0in /  0.0mm 0.00 W/m2
22:05 61.7 °F /  16.5 °C 58.8 °F /  14.9 °C 30.4in /  1028.7hPa WSW 2mph /  3.2km/h 4mph /  6.4km/h 90% 0in /  0.0mm 0.00 W/m2
22:10 61.5 °F /  16.4 °C 58.8 °F /  14.9 °C 30.4in /  1028.7hPa Calm   4mph /  6.4km/h 91% 0in /  0.0mm 0.00 W/m2
22:15 61.5 °F /  16.4 °C 58.8 °F /  14.9 °C 30.4in /  1028.7hPa WSW 4mph /  6.4km/h 4mph /  6.4km/h 91% 0in /  0.0mm 0.00 W/m2
22:20 61.5 °F /  16.4 °C 58.8 °F /  14.9 °C 30.4in /  1028.7hPa West 0.9mph /  1.4km/h 6mph /  9.7km/h 91% 0in /  0.0mm 0.00 W/m2
22:25 61.5 °F /  16.4 °C 59.2 °F /  15.1 °C 30.4in /  1028.7hPa West 2.9mph /  4.7km/h 3mph /  4.8km/h 92% 0in /  0.0mm 0.00 W/m2
22:30 61.5 °F /  16.4 °C 59.2 °F /  15.1 °C 30.4in /  1028.7hPa West 4.9mph /  7.9km/h 5mph /  8.0km/h 92% 0in /  0.0mm 0.00 W/m2
22:35 61.5 °F /  16.4 °C 59.2 °F /  15.1 °C 30.4in /  1028.7hPa West 0.9mph /  1.4km/h 4mph /  6.4km/h 92% 0in /  0.0mm 0.00 W/m2
22:40 61.3 °F /  16.3 °C 59 °F /  15.0 °C 30.4in /  1029.0hPa West 2.9mph /  4.7km/h 3mph /  4.8km/h 92% 0in /  0.0mm 0.00 W/m2
22:45 61.3 °F /  16.3 °C 59 °F /  15.0 °C 30.4in /  1029.0hPa West 5mph /  8.0km/h 5mph /  8.0km/h 92% 0in /  0.0mm 0.00 W/m2
22:50 61.3 °F /  16.3 °C 59 °F /  15.0 °C 30.4in /  1029.0hPa West 2mph /  3.2km/h 4mph /  6.4km/h 92% 0in /  0.0mm 0.00 W/m2
22:55 61.3 °F /  16.3 °C 59 °F /  15.0 °C 30.4in /  1029.0hPa West 4mph /  6.4km/h 6mph /  9.7km/h 92% 0in /  0.0mm 0.00 W/m2
23:00 61.3 °F /  16.3 °C 59 °F /  15.0 °C 30.4in /  1029.0hPa West 2.9mph /  4.7km/h 5mph /  8.0km/h 92% 0in /  0.0mm 0.00 W/m2
23:05 61.3 °F /  16.3 °C 59 °F /  15.0 °C 30.4in /  1029.0hPa West 2mph /  3.2km/h 4mph /  6.4km/h 92% 0in /  0.0mm 0.00 W/m2
23:10 61.5 °F /  16.4 °C 59.5 °F /  15.3 °C 30.4in /  1029.0hPa West 2.9mph /  4.7km/h 6mph /  9.7km/h 93% 0in /  0.0mm 0.00 W/m2
23:15 61.5 °F /  16.4 °C 59.5 °F /  15.3 °C 30.4in /  1029.0hPa West 2mph /  3.2km/h 5mph /  8.0km/h 93% 0in /  0.0mm 0.00 W/m2
23:20 61.5 °F /  16.4 °C 59.5 °F /  15.3 °C 30.4in /  1029.0hPa West 0.9mph /  1.4km/h 4mph /  6.4km/h 93% 0in /  0.0mm 0.00 W/m2
23:25 61.5 °F /  16.4 °C 59.5 °F /  15.3 °C 30.4in /  1029.0hPa West 2.9mph /  4.7km/h 4mph /  6.4km/h 93% 0in /  0.0mm 0.00 W/m2
23:30 61.5 °F /  16.4 °C 59.5 °F /  15.3 °C 30.4in /  1029.0hPa WNW 2.9mph /  4.7km/h 7mph /  11.3km/h 93% 0in /  0.0mm 0.00 W/m2
23:35 61.5 °F /  16.4 °C 59.5 °F /  15.3 °C 30.4in /  1029.0hPa WNW 0.9mph /  1.4km/h 3mph /  4.8km/h 93% 0.01in /  0.3mm 0.00 W/m2
23:40 61.5 °F /  16.4 °C 59.5 °F /  15.3 °C 30.4in /  1029.0hPa WNW 2mph /  3.2km/h 4mph /  6.4km/h 93% 0.01in /  0.3mm 0.00 W/m2
23:45 61.5 °F /  16.4 °C 59.5 °F /  15.3 °C 30.4in /  1029.0hPa WNW 0.9mph /  1.4km/h 3mph /  4.8km/h 93% 0.01in /  0.3mm 0.00 W/m2
23:50 61.5 °F /  16.4 °C 59.5 °F /  15.3 °C 30.4in /  1029.0hPa Calm   1mph /  1.6km/h 93% 0.01in /  0.3mm 0.00 W/m2
23:55 61.5 °F /  16.4 °C 59.7 °F /  15.4 °C 30.4in /  1029.0hPa Calm   2mph /  3.2km/h 94% 0.01in /  0.3mm 0.00 W/m2